| time (UTC) | temp C | wind direction | speed KPH | gust KPH | rain 1hr cm | rain 24hr cm | rain mn cm | humidity % | barometer mb |
| 20260903073459 | 26 | 263 | 4.8 | 4.8 | 0.00 | 0.00 | 0.00 | 80 | 1018.7 |
| 20260903072954 | -17 | 0.0 | 0.0 | 0.00 | 0.00 | 0.00 | 1018.5 | ||
| 20260903072450 | -17 | 0.0 | 0.0 | 0.00 | 0.00 | 0.00 | 1018.4 | ||
| 20260903071947 | -17 | 0.0 | 0.0 | 0.00 | 0.00 | 0.00 | 1018.5 | ||
| 20260903071442 | 26 | 256 | 4.8 | 4.8 | 0.00 | 0.00 | 0.00 | 81 | 1018.4 |
| 20260903070937 | 26 | 256 | 4.8 | 4.8 | 0.00 | 0.00 | 0.00 | 81 | 1018.4 |
| 20260903070432 | -17 | 0.0 | 0.0 | 0.00 | 0.00 | 0.00 | 1018.6 | ||
| 20260903065927 | -17 | 0.0 | 0.0 | 0.00 | 0.00 | 0.00 | 1018.5 | ||
| 20260903065426 | -17 | 0.0 | 0.0 | 0.00 | 0.00 | 0.00 | 1018.7 | ||
| 20260903064925 | -17 | 0.0 | 0.0 | 0.00 | 0.00 | 0.00 | 1018.6 | ||
| 20260903064421 | 26 | 288 | 4.8 | 6.4 | 0.00 | 0.00 | 0.00 | 80 | 1018.4 |
| 20260903063917 | 26 | 288 | 4.8 | 6.4 | 0.00 | 0.00 | 0.00 | 80 | 1018.7 |
| 20260903063412 | -17 | 0.0 | 0.0 | 0.00 | 0.00 | 0.00 | 1018.7 | ||
| 20260903062907 | -17 | 0.0 | 0.0 | 0.00 | 0.00 | 0.00 | 1018.5 | ||
| 20260903062402 | 26 | 258 | 3.2 | 3.2 | 0.00 | 0.00 | 0.00 | 80 | 1018.8 |
| 20260903061858 | 26 | 258 | 3.2 | 3.2 | 0.00 | 0.00 | 0.00 | 80 | 1018.6 |
| 20260903061357 | -17 | 0.0 | 0.0 | 0.00 | 0.00 | 0.00 | 1018.7 | ||
| 20260903060853 | 26 | 26 | 1.6 | 3.2 | 0.00 | 0.00 | 0.00 | 80 | 1018.7 |
| 20260903060352 | 26 | 26 | 1.6 | 3.2 | 0.00 | 0.00 | 0.00 | 80 | 1018.9 |
| 20260903055850 | 26 | 195 | 4.8 | 4.8 | 0.00 | 0.00 | 0.00 | 80 | 1018.8 |
| 20260903055348 | 26 | 196 | 3.2 | 4.8 | 0.00 | 0.00 | 0.00 | 80 | 1018.8 |
| 20260903054843 | 26 | 202 | 3.2 | 4.8 | 0.00 | 0.00 | 0.00 | 79 | 1018.7 |
| 20260903054338 | -17 | 0.0 | 0.0 | 0.00 | 0.00 | 0.00 | 1018.9 | ||
| 20260903053835 | 26 | 194 | 6.4 | 11.3 | 0.00 | 0.00 | 0.00 | 79 | 1018.8 |
| 20260903053335 | 26 | 194 | 6.4 | 11.3 | 0.00 | 0.00 | 0.00 | 79 | 1018.7 |
| 20260903052831 | -17 | 0.0 | 0.0 | 0.00 | 0.00 | 0.00 | 1018.7 | ||
| 20260903052326 | -17 | 0.0 | 0.0 | 0.00 | 0.00 | 0.00 | 1018.7 | ||
| 20260903051822 | -17 | 0.0 | 0.0 | 0.00 | 0.00 | 0.00 | 1018.6 | ||
| 20260903051317 | 27 | 200 | 3.2 | 4.8 | 0.00 | 0.00 | 0.00 | 78 | 1018.4 |
| 20260903050812 | 27 | 200 | 3.2 | 4.8 | 0.00 | 0.00 | 0.00 | 78 | 1018.6 |
| 20260903050311 | -17 | 0.0 | 0.0 | 0.00 | 0.00 | 0.00 | 1018.5 | ||
| 20260903045806 | -17 | 0.0 | 0.0 | 0.00 | 0.00 | 0.00 | 1018.6 | ||
| 20260903045306 | 27 | 270 | 4.8 | 6.4 | 0.00 | 0.00 | 0.00 | 77 | 1018.5 |
| 20260903044758 | 27 | 270 | 4.8 | 6.4 | 0.00 | 0.00 | 0.00 | 77 | 1018.5 |
| 20260903044253 | 27 | 213 | 3.2 | 4.8 | 0.00 | 0.00 | 0.00 | 77 | 1018.5 |
| 20260903043750 | 27 | 219 | 6.4 | 6.4 | 0.00 | 0.00 | 0.00 | 76 | 1018.3 |
| 20260903043250 | 27 | 219 | 6.4 | 6.4 | 0.00 | 0.00 | 0.00 | 76 | 1018.3 |
| 20260903042749 | 27 | 213 | 3.2 | 3.2 | 0.00 | 0.00 | 0.00 | 76 | 1018.3 |
| 20260903042244 | 27 | 257 | 3.2 | 4.8 | 0.00 | 0.00 | 0.00 | 76 | 1018.2 |
| 20260903041740 | 27 | 218 | 8.0 | 9.7 | 0.00 | 0.00 | 0.00 | 76 | 1018.3 |
| 20260903041237 | 27 | 302 | 3.2 | 3.2 | 0.00 | 0.00 | 0.00 | 76 | 1018.1 |
| 20260903040731 | -17 | 0.0 | 0.0 | 0.00 | 0.00 | 0.00 | 1018.0 | ||
| 20260903040226 | -17 | 0.0 | 0.0 | 0.00 | 0.00 | 0.00 | 1018.1 | ||
| 20260903035722 | 27 | 206 | 3.2 | 3.2 | 0.00 | 0.00 | 0.00 | 77 | 1018.0 |
| 20260903035218 | 27 | 206 | 3.2 | 3.2 | 0.00 | 0.00 | 0.00 | 77 | 1018.0 |
| 20260903034717 | 27 | 199 | 1.6 | 3.2 | 0.00 | 0.00 | 0.00 | 77 | 1017.9 |
| 20260903034212 | 27 | 292 | 6.4 | 9.7 | 0.00 | 0.00 | 0.00 | 77 | 1017.8 |
| 20260903033708 | 27 | 207 | 3.2 | 6.4 | 0.00 | 0.00 | 0.00 | 78 | 1017.7 |
| 20260903033208 | 27 | 89 | 1.6 | 4.8 | 0.00 | 0.00 | 0.00 | 78 | 1017.8 |
| 20260903032702 | 27 | 267 | 4.8 | 6.4 | 0.00 | 0.00 | 0.00 | 78 | 1017.9 |
| 20260903032158 | 27 | 126 | 1.6 | 6.4 | 0.00 | 0.00 | 0.00 | 78 | 1018.0 |
| 20260903031654 | 27 | 184 | 1.6 | 4.8 | 0.00 | 0.00 | 0.00 | 79 | 1018.1 |
| 20260903031153 | 27 | 270 | 1.6 | 9.7 | 0.00 | 0.00 | 0.00 | 78 | 1018.3 |
| 20260903030649 | 27 | 190 | 3.2 | 9.7 | 0.00 | 0.00 | 0.00 | 78 | 1018.2 |
| 20260903030144 | 27 | 169 | 1.6 | 3.2 | 0.00 | 0.00 | 0.00 | 78 | 1018.2 |
| 20260903025639 | 27 | 309 | 0.0 | 3.2 | 0.00 | 0.00 | 0.00 | 78 | 1018.3 |
| 20260903025135 | 27 | 84 | 0.0 | 0.0 | 0.00 | 0.00 | 0.00 | 79 | 1018.3 |
| 20260903024630 | 27 | 131 | 3.2 | 6.4 | 0.00 | 0.00 | 0.00 | 78 | 1018.5 |
| 20260903024124 | 27 | 111 | 1.6 | 3.2 | 0.00 | 0.00 | 0.00 | 78 | 1018.7 |
| 20260903023620 | 27 | 261 | 3.2 | 6.4 | 0.00 | 0.00 | 0.00 | 78 | 1018.6 |
| 20260903023115 | 27 | 197 | 1.6 | 3.2 | 0.00 | 0.00 | 0.00 | 78 | 1018.6 |
| 20260903022615 | 27 | 259 | 3.2 | 4.8 | 0.00 | 0.00 | 0.00 | 78 | 1018.7 |
| 20260903022114 | 27 | 224 | 1.6 | 4.8 | 0.00 | 0.00 | 0.00 | 77 | 1018.8 |
| 20260903021608 | 27 | 115 | 0.0 | 6.4 | 0.00 | 0.00 | 0.00 | 77 | 1018.7 |
| 20260903021108 | 27 | 217 | 1.6 | 4.8 | 0.00 | 0.00 | 0.00 | 77 | 1018.8 |
| 20260903020604 | 27 | 162 | 0.0 | 1.6 | 0.00 | 0.00 | 0.00 | 77 | 1018.9 |
| 20260903020104 | 27 | 163 | 0.0 | 1.6 | 0.00 | 0.00 | 0.00 | 77 | 1018.7 |
| 20260903015559 | 27 | 193 | 1.6 | 3.2 | 0.00 | 0.00 | 0.00 | 77 | 1018.9 |
| 20260903015054 | 27 | 240 | 1.6 | 4.8 | 0.00 | 0.00 | 0.00 | 77 | 1018.7 |
| 20260903014554 | 27 | 159 | 0.0 | 3.2 | 0.00 | 0.00 | 0.00 | 76 | 1018.7 |
| 20260903014044 | 27 | 237 | 3.2 | 4.8 | 0.00 | 0.00 | 0.00 | 76 | 1019.0 |
| 20260903013543 | 27 | 262 | 0.0 | 3.2 | 0.00 | 0.00 | 0.00 | 76 | 1018.7 |
| 20260903013038 | 27 | 198 | 1.6 | 3.2 | 0.00 | 0.00 | 0.00 | 76 | 1018.7 |
| 20260903012531 | 27 | 181 | 1.6 | 1.6 | 0.00 | 0.00 | 0.00 | 75 | 1018.7 |
| 20260903012030 | 27 | 218 | 1.6 | 4.8 | 0.00 | 0.00 | 0.00 | 75 | 1018.6 |
| 20260903011525 | 27 | 281 | 3.2 | 3.2 | 0.00 | 0.00 | 0.00 | 75 | 1018.6 |
| 20260903011020 | 27 | 203 | 0.0 | 1.6 | 0.00 | 0.00 | 0.00 | 75 | 1018.7 |
| 20260903010515 | 27 | 313 | 0.0 | 1.6 | 0.00 | 0.00 | 0.00 | 74 | 1018.5 |
| 20260903010014 | 27 | 272 | 1.6 | 1.6 | 0.00 | 0.00 | 0.00 | 74 | 1018.6 |
| 20260903005514 | 27 | 192 | 3.2 | 3.2 | 0.00 | 0.00 | 0.00 | 74 | 1018.5 |
| 20260903005009 | 27 | 174 | 1.6 | 1.6 | 0.00 | 0.00 | 0.00 | 73 | 1018.7 |
| 20260903004504 | 28 | 239 | 1.6 | 1.6 | 0.00 | 0.00 | 0.00 | 74 | 1018.3 |
| 20260903004000 | 27 | 177 | 1.6 | 3.2 | 0.00 | 0.00 | 0.00 | 73 | 1018.3 |
| 20260903003454 | 28 | 235 | 1.6 | 3.2 | 0.00 | 0.00 | 0.00 | 73 | 1018.2 |
| 20260903002949 | 28 | 209 | 3.2 | 4.8 | 0.00 | 0.00 | 0.00 | 72 | 1018.2 |
| 20260903002444 | 28 | 249 | 0.0 | 1.6 | 0.00 | 0.00 | 0.00 | 72 | 1018.3 |
| 20260903001943 | 28 | 295 | 0.0 | 0.0 | 0.00 | 0.00 | 0.00 | 72 | 1018.2 |
| 20260903001444 | 28 | 136 | 1.6 | 3.2 | 0.00 | 0.00 | 0.00 | 71 | 1018.4 |
| 20260903000938 | 28 | 192 | 1.6 | 4.8 | 0.00 | 0.00 | 0.00 | 71 | 1018.3 |
| 20260903000434 | 28 | 193 | 1.6 | 3.2 | 0.00 | 0.00 | 0.00 | 71 | 1018.3 |
| 20260902235931 | 28 | 290 | 1.6 | 3.2 | 0.00 | 0.00 | 0.00 | 71 | 1018.2 |
| 20260902235427 | 28 | 286 | 0.0 | 1.6 | 0.00 | 0.00 | 0.00 | 71 | 1018.3 |
| 20260902234926 | 29 | 191 | 0.0 | 3.2 | 0.00 | 0.00 | 0.00 | 71 | 1018.3 |
| 20260902234421 | 29 | 203 | 4.8 | 4.8 | 0.00 | 0.00 | 0.00 | 71 | 1018.4 |
| 20260902233920 | 29 | 139 | 1.6 | 1.6 | 0.00 | 0.00 | 0.00 | 71 | 1018.2 |
| 20260902233415 | 29 | 247 | 1.6 | 3.2 | 0.00 | 0.00 | 0.00 | 71 | 1018.2 |
| 20260902232914 | 30 | 231 | 3.2 | 4.8 | 0.00 | 0.00 | 0.00 | 70 | 1018.1 |
| 20260902232409 | 30 | 230 | 0.0 | 1.6 | 0.00 | 0.00 | 0.00 | 70 | 1018.0 |
| 20260902231908 | 30 | 248 | 1.6 | 3.2 | 0.00 | 0.00 | 0.00 | 70 | 1018.1 |
| 20260902231403 | 30 | 316 | 1.6 | 4.8 | 0.00 | 0.00 | 0.00 | 69 | 1018.3 |
| 20260902230853 | 30 | 244 | 4.8 | 4.8 | 0.00 | 0.00 | 0.00 | 69 | 1018.2 |
| 20260902230352 | 30 | 282 | 4.8 | 6.4 | 0.00 | 0.00 | 0.00 | 68 | 1018.1 |
| 20260902225851 | 30 | 269 | 6.4 | 9.7 | 0.00 | 0.00 | 0.00 | 68 | 1018.2 |
| 20260902225347 | 30 | 239 | 0.0 | 6.4 | 0.00 | 0.00 | 0.00 | 68 | 1018.2 |
| 20260902224845 | 30 | 190 | 0.0 | 11.3 | 0.00 | 0.00 | 0.00 | 67 | 1018.1 |
| 20260902224340 | 30 | 168 | 0.0 | 4.8 | 0.00 | 0.00 | 0.00 | 67 | 1018.2 |
| 20260902223837 | 31 | 228 | 3.2 | 4.8 | 0.00 | 0.00 | 0.00 | 66 | 1018.2 |
| 20260902223331 | 31 | 282 | 6.4 | 9.7 | 0.00 | 0.00 | 0.00 | 66 | 1018.3 |
| 20260902222831 | 31 | 209 | 3.2 | 9.7 | 0.00 | 0.00 | 0.00 | 66 | 1018.3 |
| 20260902222329 | 31 | 132 | 0.0 | 4.8 | 0.00 | 0.00 | 0.00 | 66 | 1018.2 |
| 20260902221824 | 31 | 210 | 3.2 | 9.7 | 0.00 | 0.00 | 0.00 | 65 | 1018.2 |
| 20260902221323 | 32 | 200 | 0.0 | 1.6 | 0.00 | 0.00 | 0.00 | 64 | 1018.3 |
| 20260902220819 | 32 | 196 | 3.2 | 11.3 | 0.00 | 0.00 | 0.00 | 63 | 1018.2 |
| 20260902220319 | 32 | 178 | 6.4 | 9.7 | 0.00 | 0.00 | 0.00 | 61 | 1018.3 |
| 20260902215815 | 32 | 271 | 3.2 | 4.8 | 0.00 | 0.00 | 0.00 | 61 | 1018.2 |
| 20260902215314 | 32 | 273 | 3.2 | 6.4 | 0.00 | 0.00 | 0.00 | 61 | 1018.5 |
| 20260902214811 | 32 | 224 | 3.2 | 11.3 | 0.00 | 0.00 | 0.00 | 63 | 1018.4 |
| 20260902214309 | 32 | 208 | 3.2 | 9.7 | 0.00 | 0.00 | 0.00 | 61 | 1018.2 |
| 20260902213805 | 32 | 255 | 8.0 | 12.9 | 0.00 | 0.00 | 0.00 | 60 | 1018.5 |
| 20260902213300 | 32 | 260 | 4.8 | 9.7 | 0.00 | 0.00 | 0.00 | 60 | 1018.5 |
| 20260902212759 | 32 | 213 | 6.4 | 9.7 | 0.00 | 0.00 | 0.00 | 61 | 1018.6 |
| 20260902212256 | 32 | 193 | 4.8 | 4.8 | 0.00 | 0.00 | 0.00 | 61 | 1018.4 |
| 20260902211752 | 32 | 152 | 1.6 | 4.8 | 0.00 | 0.00 | 0.00 | 61 | 1018.4 |
| 20260902211247 | 32 | 237 | 3.2 | 6.4 | 0.00 | 0.00 | 0.00 | 62 | 1018.5 |
| 20260902210741 | 33 | 154 | 1.6 | 4.8 | 0.00 | 0.00 | 0.00 | 61 | 1018.5 |
| 20260902210236 | 33 | 223 | 0.0 | 6.4 | 0.00 | 0.00 | 0.00 | 60 | 1018.5 |
| 20260902205734 | 32 | 171 | 1.6 | 9.7 | 0.00 | 0.00 | 0.00 | 58 | 1018.7 |
| 20260902205230 | 32 | 271 | 3.2 | 6.4 | 0.00 | 0.00 | 0.00 | 59 | 1018.7 |
| 20260902204725 | 33 | 249 | 3.2 | 4.8 | 0.00 | 0.00 | 0.00 | 58 | 1018.8 |
| 20260902204220 | 33 | 164 | 3.2 | 12.9 | 0.00 | 0.00 | 0.00 | 57 | 1018.6 |
| 20260902203715 | 33 | 253 | 4.8 | 4.8 | 0.00 | 0.00 | 0.00 | 59 | 1018.8 |
| 20260902203209 | 33 | 308 | 1.6 | 6.4 | 0.00 | 0.00 | 0.00 | 60 | 1019.0 |
| 20260902202704 | 32 | 260 | 3.2 | 14.5 | 0.00 | 0.00 | 0.00 | 61 | 1019.0 |
| 20260902202201 | 33 | 235 | 6.4 | 12.9 | 0.00 | 0.00 | 0.00 | 61 | 1019.0 |
| 20260902201657 | 32 | 113 | 6.4 | 12.9 | 0.00 | 0.00 | 0.00 | 60 | 1019.1 |
| 20260902201156 | 32 | 175 | 0.0 | 6.4 | 0.00 | 0.00 | 0.00 | 61 | 1019.1 |
| 20260902200651 | 32 | 279 | 4.8 | 6.4 | 0.00 | 0.00 | 0.00 | 61 | 1019.1 |
| 20260902200147 | 33 | 197 | 4.8 | 11.3 | 0.00 | 0.00 | 0.00 | 61 | 1019.1 |
| 20260902195642 | 33 | 195 | 4.8 | 6.4 | 0.00 | 0.00 | 0.00 | 59 | 1019.3 |
| 20260902195137 | 33 | 290 | 4.8 | 9.7 | 0.00 | 0.00 | 0.00 | 60 | 1019.3 |
| 20260902194635 | 33 | 171 | 3.2 | 14.5 | 0.00 | 0.00 | 0.00 | 62 | 1019.3 |
| 20260902194130 | 33 | 188 | 6.4 | 9.7 | 0.00 | 0.00 | 0.00 | 63 | 1019.3 |
| 20260902193626 | 33 | 231 | 8.0 | 11.3 | 0.00 | 0.00 | 0.00 | 64 | 1019.3 |
| 20260902193121 | 33 | 203 | 1.6 | 4.8 | 0.00 | 0.00 | 0.00 | 62 | 1019.5 |
| 20260902192619 | 32 | 80 | 11.3 | 16.1 | 0.00 | 0.00 | 0.00 | 64 | 1019.4 |
| 20260902192118 | 32 | 200 | 1.6 | 6.4 | 0.00 | 0.00 | 0.00 | 64 | 1019.5 |
| 20260902191613 | 33 | 201 | 3.2 | 4.8 | 0.00 | 0.00 | 0.00 | 62 | 1019.7 |
| 20260902191108 | 33 | 184 | 1.6 | 3.2 | 0.00 | 0.00 | 0.00 | 64 | 1019.7 |
| 20260902190604 | 33 | 200 | 1.6 | 4.8 | 0.00 | 0.00 | 0.00 | 63 | 1019.6 |
| 20260902190058 | 33 | 284 | 3.2 | 6.4 | 0.00 | 0.00 | 0.00 | 63 | 1019.7 |
| 20260902185555 | 33 | 257 | 0.0 | 4.8 | 0.00 | 0.00 | 0.00 | 63 | 1019.8 |
| 20260902185050 | 32 | 99 | 4.8 | 6.4 | 0.00 | 0.00 | 0.00 | 63 | 1019.6 |
| 20260902184545 | 32 | 214 | 4.8 | 9.7 | 0.00 | 0.00 | 0.00 | 64 | 1019.6 |
| 20260902184040 | 32 | 216 | 3.2 | 6.4 | 0.00 | 0.00 | 0.00 | 65 | 1019.8 |
| 20260902183537 | 33 | 206 | 1.6 | 6.4 | 0.00 | 0.00 | 0.00 | 63 | 1019.7 |
| 20260902183033 | 33 | 76 | 8.0 | 11.3 | 0.00 | 0.00 | 0.00 | 60 | 1020.0 |
| 20260902182529 | 33 | 317 | 3.2 | 6.4 | 0.00 | 0.00 | 0.00 | 62 | 1019.7 |
| 20260902182025 | 32 | 207 | 4.8 | 6.4 | 0.00 | 0.00 | 0.00 | 64 | 1020.2 |
| 20260902181520 | 32 | 118 | 3.2 | 9.7 | 0.00 | 0.00 | 0.00 | 65 | 1020.2 |
| 20260902181014 | 32 | 208 | 6.4 | 9.7 | 0.00 | 0.00 | 0.00 | 64 | 1019.9 |
| 20260902180509 | 32 | 243 | 3.2 | 6.4 | 0.00 | 0.00 | 0.00 | 64 | 1019.9 |
| 20260902180007 | 32 | 87 | 3.2 | 4.8 | 0.00 | 0.00 | 0.00 | 64 | 1020.2 |
| 20260902175505 | 32 | 149 | 4.8 | 12.9 | 0.00 | 0.00 | 0.00 | 65 | 1020.2 |
| 20260902175001 | 32 | 301 | 4.8 | 6.4 | 0.00 | 0.00 | 0.00 | 66 | 1020.3 |
| 20260902174457 | 32 | 220 | 4.8 | 9.7 | 0.00 | 0.00 | 0.00 | 62 | 1020.2 |
| 20260902173952 | 32 | 115 | 4.8 | 6.4 | 0.00 | 0.00 | 0.00 | 63 | 1020.4 |
| 20260902173451 | 33 | 6 | 3.2 | 3.2 | 0.00 | 0.00 | 0.00 | 60 | 1020.6 |
| 20260902172947 | 32 | 230 | 3.2 | 14.5 | 0.00 | 0.00 | 0.00 | 63 | 1020.5 |
| 20260902172446 | 32 | 219 | 3.2 | 6.4 | 0.00 | 0.00 | 0.00 | 64 | 1020.5 |
| 20260902171941 | 32 | 128 | 4.8 | 4.8 | 0.00 | 0.00 | 0.00 | 64 | 1020.8 |
| 20260902171437 | 32 | 179 | 1.6 | 9.7 | 0.00 | 0.00 | 0.00 | 65 | 1020.8 |
| 20260902170933 | 32 | 348 | 3.2 | 4.8 | 0.00 | 0.00 | 0.00 | 64 | 1020.6 |
| 20260902170428 | 32 | 219 | 3.2 | 9.7 | 0.00 | 0.00 | 0.00 | 65 | 1020.7 |
| 20260902165923 | 31 | 282 | 1.6 | 9.7 | 0.00 | 0.00 | 0.00 | 65 | 1020.6 |
| 20260902165422 | 32 | 190 | 3.2 | 9.7 | 0.00 | 0.00 | 0.00 | 63 | 1020.9 |
| 20260902164917 | 32 | 209 | 1.6 | 4.8 | 0.00 | 0.00 | 0.00 | 63 | 1020.8 |
| 20260902164412 | 32 | 2 | 0.0 | 6.4 | 0.00 | 0.00 | 0.00 | 62 | 1020.9 |
| 20260902163912 | 32 | 232 | 3.2 | 4.8 | 0.00 | 0.00 | 0.00 | 63 | 1021.0 |
| 20260902163407 | 32 | 290 | 1.6 | 4.8 | 0.00 | 0.00 | 0.00 | 65 | 1020.9 |
| 20260902162904 | 31 | 166 | 3.2 | 4.8 | 0.00 | 0.00 | 0.00 | 67 | 1020.9 |
| 20260902162400 | 31 | 282 | 1.6 | 6.4 | 0.00 | 0.00 | 0.00 | 68 | 1020.9 |
| 20260902161859 | 31 | 202 | 3.2 | 6.4 | 0.00 | 0.00 | 0.00 | 66 | 1020.9 |
| 20260902161355 | 31 | 286 | 4.8 | 9.7 | 0.00 | 0.00 | 0.00 | 67 | 1020.9 |
| 20260902160851 | 31 | 111 | 4.8 | 6.4 | 0.00 | 0.00 | 0.00 | 67 | 1020.7 |
| 20260902160346 | 31 | 151 | 3.2 | 6.4 | 0.00 | 0.00 | 0.00 | 67 | 1020.7 |
| 20260902155844 | 31 | 245 | 1.6 | 6.4 | 0.00 | 0.00 | 0.00 | 69 | 1020.6 |
| 20260902155343 | 31 | 198 | 3.2 | 9.7 | 0.00 | 0.00 | 0.00 | 68 | 1020.7 |
| 20260902154838 | 31 | 142 | 1.6 | 3.2 | 0.00 | 0.00 | 0.00 | 67 | 1020.9 |
| 20260902154334 | 31 | 213 | 3.2 | 4.8 | 0.00 | 0.00 | 0.00 | 67 | 1020.8 |
| 20260902153833 | 31 | 148 | 1.6 | 4.8 | 0.00 | 0.00 | 0.00 | 67 | 1021.0 |
| 20260902153332 | 31 | 195 | 1.6 | 6.4 | 0.00 | 0.00 | 0.00 | 68 | 1020.8 |
| 20260902152828 | 31 | 218 | 3.2 | 4.8 | 0.00 | 0.00 | 0.00 | 67 | 1020.8 |
| 20260902152324 | 31 | 255 | 3.2 | 4.8 | 0.00 | 0.00 | 0.00 | 66 | 1020.8 |
| 20260902151819 | 31 | 154 | 3.2 | 4.8 | 0.00 | 0.00 | 0.00 | 67 | 1020.9 |
| 20260902151315 | 30 | 206 | 3.2 | 3.2 | 0.00 | 0.00 | 0.00 | 68 | 1021.0 |
| 20260902150809 | 30 | 207 | 3.2 | 4.8 | 0.00 | 0.00 | 0.00 | 68 | 1021.0 |
| 20260902150305 | 30 | 229 | 3.2 | 4.8 | 0.00 | 0.00 | 0.00 | 70 | 1020.8 |
| 20260902145804 | 30 | 192 | 1.6 | 4.8 | 0.00 | 0.00 | 0.00 | 71 | 1020.7 |
| 20260902145300 | 30 | 223 | 1.6 | 3.2 | 0.00 | 0.00 | 0.00 | 70 | 1020.9 |
| 20260902144755 | 30 | 205 | 3.2 | 4.8 | 0.00 | 0.00 | 0.00 | 72 | 1020.8 |
| 20260902144251 | 30 | 241 | 1.6 | 3.2 | 0.00 | 0.00 | 0.00 | 72 | 1020.8 |
| 20260902143746 | 29 | 275 | 1.6 | 4.8 | 0.00 | 0.00 | 0.00 | 75 | 1020.7 |
| 20260902143241 | 29 | 187 | 1.6 | 1.6 | 0.00 | 0.00 | 0.00 | 75 | 1020.8 |
| 20260902142736 | 29 | 71 | 1.6 | 4.8 | 0.00 | 0.00 | 0.00 | 75 | 1020.8 |
| 20260902142232 | 28 | 280 | 1.6 | 3.2 | 0.00 | 0.00 | 0.00 | 77 | 1020.9 |
| 20260902141732 | 28 | 262 | 4.8 | 6.4 | 0.00 | 0.00 | 0.00 | 77 | 1020.6 |
| 20260902141228 | 28 | 233 | 4.8 | 4.8 | 0.00 | 0.00 | 0.00 | 77 | 1020.7 |
| 20260902140723 | 27 | 117 | 0.0 | 1.6 | 0.00 | 0.00 | 0.00 | 79 | 1020.7 |
| 20260902140218 | 27 | 117 | 1.6 | 4.8 | 0.00 | 0.00 | 0.00 | 78 | 1020.6 |
| 20260902135717 | 27 | 244 | 3.2 | 4.8 | 0.00 | 0.00 | 0.00 | 80 | 1020.8 |
| 20260902135213 | -17 | 0.0 | 0.0 | 0.00 | 0.00 | 0.00 | 1020.7 | ||
| 20260902134712 | -17 | 0.0 | 0.0 | 0.00 | 0.00 | 0.00 | 1020.8 | ||
| 20260902134208 | -17 | 0.0 | 0.0 | 0.00 | 0.00 | 0.00 | 1020.8 | ||
| 20260902133703 | -17 | 0.0 | 0.0 | 0.00 | 0.00 | 0.00 | 1020.5 | ||
| 20260902133202 | -17 | 0.0 | 0.0 | 0.00 | 0.00 | 0.00 | 1020.7 | ||
| 20260902132653 | -17 | 0.0 | 0.0 | 0.00 | 0.00 | 0.00 | 1020.7 | ||
| 20260902132148 | -17 | 0.0 | 0.0 | 0.00 | 0.00 | 0.00 | 1020.8 | ||
| 20260902131643 | -17 | 0.0 | 0.0 | 0.00 | 0.00 | 0.00 | 1020.9 | ||
| 20260902131139 | -17 | 0.0 | 0.0 | 0.00 | 0.00 | 0.00 | 1020.6 | ||
| 20260902130635 | 24 | 282 | 0.0 | 3.2 | 0.00 | 0.00 | 0.00 | 87 | 1020.7 |
| 20260902130130 | 24 | 282 | 0.0 | 3.2 | 0.00 | 0.00 | 0.00 | 87 | 1020.7 |
| 20260902125625 | -17 | 0.0 | 0.0 | 0.00 | 0.00 | 0.00 | 1020.7 | ||
| 20260902125120 | -17 | 0.0 | 0.0 | 0.00 | 0.00 | 0.00 | 1020.7 | ||
| 20260902124617 | -17 | 0.0 | 0.0 | 0.00 | 0.00 | 0.00 | 1020.5 | ||
| 20260902124117 | -17 | 0.0 | 0.0 | 0.00 | 0.00 | 0.00 | 1020.6 | ||
| 20260902123613 | -17 | 0.0 | 0.0 | 0.00 | 0.00 | 0.00 | 1020.5 | ||
| 20260902123108 | -17 | 0.0 | 0.0 | 0.00 | 0.00 | 0.00 | 1020.6 | ||
| 20260902122607 | -17 | 0.0 | 0.0 | 0.00 | 0.00 | 0.00 | 1020.5 | ||
| 20260902122103 | -17 | 0.0 | 0.0 | 0.00 | 0.00 | 0.00 | 1020.5 | ||
| 20260902121602 | -17 | 0.0 | 0.0 | 0.00 | 0.00 | 0.00 | 1020.5 | ||
| 20260902121057 | -17 | 0.0 | 0.0 | 0.00 | 0.00 | 0.00 | 1020.5 | ||
| 20260902120553 | -17 | 0.0 | 0.0 | 0.00 | 0.00 | 0.00 | 1020.4 | ||
| 20260902120049 | -17 | 0.0 | 0.0 | 0.00 | 0.00 | 0.00 | 1020.7 | ||
| 20260902115544 | -17 | 0.0 | 0.0 | 0.00 | 0.00 | 0.00 | 1020.5 | ||
| 20260902115041 | -17 | 0.0 | 0.0 | 0.00 | 0.00 | 0.00 | 1020.3 | ||
| 20260902114536 | -17 | 0.0 | 0.0 | 0.00 | 0.00 | 0.00 | 1020.4 | ||
| 20260902114031 | -17 | 0.0 | 0.0 | 0.00 | 0.00 | 0.00 | 1020.3 | ||
| 20260902113527 | -17 | 0.0 | 0.0 | 0.00 | 0.00 | 0.00 | 1020.2 | ||
| 20260902113021 | -17 | 0.0 | 0.0 | 0.00 | 0.00 | 0.00 | 1020.0 | ||
| 20260902112517 | -17 | 0.0 | 0.0 | 0.00 | 0.00 | 0.00 | 1020.2 | ||
| 20260902112014 | -17 | 0.0 | 0.0 | 0.00 | 0.00 | 0.00 | 1020.0 | ||
| 20260902111509 | -17 | 0.0 | 0.0 | 0.00 | 0.00 | 0.00 | 1020.0 | ||
| 20260902111005 | -17 | 0.0 | 0.0 | 0.00 | 0.00 | 0.00 | 1019.8 | ||
| 20260902110501 | -17 | 0.0 | 0.0 | 0.00 | 0.00 | 0.00 | 1019.9 | ||
| 20260902105955 | -17 | 0.0 | 0.0 | 0.00 | 0.00 | 0.00 | 1019.9 | ||
| 20260902105450 | -17 | 0.0 | 0.0 | 0.00 | 0.00 | 0.00 | 1019.6 | ||
| 20260902104944 | 24 | 222 | 0.0 | 1.6 | 0.00 | 0.00 | 0.00 | 88 | 1019.7 |
| 20260902104440 | 24 | 222 | 0.0 | 1.6 | 0.00 | 0.00 | 0.00 | 88 | 1019.6 |
| 20260902103935 | 24 | 246 | 1.6 | 3.2 | 0.00 | 0.00 | 0.00 | 88 | 1019.7 |
| 20260902103430 | 24 | 246 | 1.6 | 3.2 | 0.00 | 0.00 | 0.00 | 88 | 1019.6 |
| 20260902102925 | -17 | 0.0 | 0.0 | 0.00 | 0.00 | 0.00 | 1019.5 | ||
| 20260902102422 | -17 | 0.0 | 0.0 | 0.00 | 0.00 | 0.00 | 1019.5 | ||
| 20260902101918 | -17 | 0.0 | 0.0 | 0.00 | 0.00 | 0.00 | 1019.6 | ||
| 20260902101413 | -17 | 0.0 | 0.0 | 0.00 | 0.00 | 0.00 | 1019.6 | ||
| 20260902100912 | -17 | 0.0 | 0.0 | 0.00 | 0.00 | 0.00 | 1019.7 | ||
| 20260902100412 | -17 | 0.0 | 0.0 | 0.00 | 0.00 | 0.00 | 1019.6 | ||
| 20260902095906 | -17 | 0.0 | 0.0 | 0.00 | 0.00 | 0.00 | 1019.6 | ||
| 20260902095401 | -17 | 0.0 | 0.0 | 0.00 | 0.00 | 0.00 | 1019.7 | ||
| 20260902094900 | -17 | 0.0 | 0.0 | 0.00 | 0.00 | 0.00 | 1019.8 | ||
| 20260902094357 | -17 | 0.0 | 0.0 | 0.00 | 0.00 | 0.00 | 1019.9 | ||
| 20260902093856 | -17 | 0.0 | 0.0 | 0.00 | 0.00 | 0.00 | 1019.7 | ||
| 20260902093351 | -17 | 0.0 | 0.0 | 0.00 | 0.00 | 0.00 | 1019.8 | ||
| 20260902092850 | -17 | 0.0 | 0.0 | 0.00 | 0.00 | 0.00 | 1019.8 | ||
| 20260902092346 | -17 | 0.0 | 0.0 | 0.00 | 0.00 | 0.00 | 1019.9 | ||
| 20260902091840 | -17 | 0.0 | 0.0 | 0.00 | 0.00 | 0.00 | 1020.0 | ||
| 20260902091336 | -17 | 0.0 | 0.0 | 0.00 | 0.00 | 0.00 | 1019.7 | ||
| 20260902090833 | -17 | 0.0 | 0.0 | 0.00 | 0.00 | 0.00 | 1019.7 | ||
| 20260902090332 | -17 | 0.0 | 0.0 | 0.00 | 0.00 | 0.00 | 1019.8 | ||
| 20260902085831 | -17 | 0.0 | 0.0 | 0.00 | 0.00 | 0.00 | 1019.8 | ||
| 20260902085326 | -17 | 0.0 | 0.0 | 0.00 | 0.00 | 0.00 | 1019.7 | ||
| 20260902084822 | -17 | 0.0 | 0.0 | 0.00 | 0.00 | 0.00 | 1019.9 | ||
| 20260902084319 | -17 | 0.0 | 0.0 | 0.00 | 0.00 | 0.00 | 1019.7 | ||
| 20260902083813 | -17 | 0.0 | 0.0 | 0.00 | 0.00 | 0.00 | 1019.8 | ||
| 20260902083313 | -17 | 0.0 | 0.0 | 0.00 | 0.00 | 0.00 | 1019.8 | ||
| 20260902082808 | -17 | 0.0 | 0.0 | 0.00 | 0.00 | 0.00 | 1019.6 | ||
| 20260902082309 | -17 | 0.0 | 0.0 | 0.00 | 0.00 | 0.00 | 1019.7 | ||
| 20260902081801 | -17 | 0.0 | 0.0 | 0.00 | 0.00 | 0.00 | 1019.8 | ||
| 20260902081256 | -17 | 0.0 | 0.0 | 0.00 | 0.00 | 0.00 | 1019.7 | ||
| 20260902080751 | -17 | 0.0 | 0.0 | 0.00 | 0.00 | 0.00 | 1019.8 | ||
| 20260902080248 | -17 | 0.0 | 0.0 | 0.00 | 0.00 | 0.00 | 1019.8 | ||
| 20260902075747 | -17 | 0.0 | 0.0 | 0.00 | 0.00 | 0.00 | 1019.7 | ||
| 20260902075243 | -17 | 0.0 | 0.0 | 0.00 | 0.00 | 0.00 | 1019.6 | ||
| 20260902074738 | -17 | 0.0 | 0.0 | 0.00 | 0.00 | 0.00 | 1019.5 | ||
| 20260902074234 | -17 | 0.0 | 0.0 | 0.00 | 0.00 | 0.00 | 1019.5 |